SCIE/CCP METAR and TAF weather

Enter ICAO airport designator
Station Type Date Time Source
SCIE METAR 2019/06/18 16:00 UTC NOAA

SCIE 181600Z 13010KT 9999 FEW016 10/08 Q1027


Station Type Date Time Source
SCIE Decoded METAR 2019/06/18 16:00 UTC NOAA

Concepcion, Chile (SCIE) 36-46S 073-03W
Jun 18, 2019 - 12:00 PM EDT / 2019.06.18 1600 UTC
Wind: from the SE (130 degrees) at 12 MPH (10 KT):0
Visibility: greater than 7 mile(s):0
Sky conditions: mostly clear
Temperature: 50 F (10 C)
Dew Point: 46 F (8 C)
Relative Humidity: 87%
Pressure (altimeter): 30.33 in. Hg (1027 hPa)
ob: SCIE 181600Z 13010KT 9999 FEW016 10/08 Q1027
cycle: 16

Station Type Date Time Source
SCIE TAF 2019/06/18 12:03 UTC NOAA

TAF SCIE 181015Z 1812/1912 13004KT 9999 FEW015 SCT025 TX16/1818Z TN04/1911Z
BECMG 1813/1815 FEW020
BECMG 1815/1817 22008KT CAVOK
BECMG 1901/1903 16004KT
TEMPO 1906/1912 13004KT 4000 BR NSC

Example: see airport list